sensor_id;sensor_type;location;lat;lon;timestamp;temperature;humidity
6948;DHT22;3513;47.664;9.162;2022-07-29T00:00:13;19.40;99.90
6948;DHT22;3513;47.664;9.162;2022-07-29T00:02:39;19.30;99.90
6948;DHT22;3513;47.664;9.162;2022-07-29T00:05:05;19.30;99.90
6948;DHT22;3513;47.664;9.162;2022-07-29T00:07:31;19.30;99.90
6948;DHT22;3513;47.664;9.162;2022-07-29T00:09:57;19.30;99.90
6948;DHT22;3513;47.664;9.162;2022-07-29T00:12:24;19.20;99.90
6948;DHT22;3513;47.664;9.162;2022-07-29T00:14:50;19.30;99.90
6948;DHT22;3513;47.664;9.162;2022-07-29T00:17:16;19.20;99.90
6948;DHT22;3513;47.664;9.162;2022-07-29T00:19:41;19.30;99.90
6948;DHT22;3513;47.664;9.162;2022-07-29T00:22:07;19.30;99.90
6948;DHT22;3513;47.664;9.162;2022-07-29T00:24:33;19.20;99.90
6948;DHT22;3513;47.664;9.162;2022-07-29T00:26:58;19.30;99.90
6948;DHT22;3513;47.664;9.162;2022-07-29T00:29:24;19.30;99.90
6948;DHT22;3513;47.664;9.162;2022-07-29T00:31:50;19.30;99.90
6948;DHT22;3513;47.664;9.162;2022-07-29T00:34:16;19.40;99.90
6948;DHT22;3513;47.664;9.162;2022-07-29T00:37:00;19.30;99.90
6948;DHT22;3513;47.664;9.162;2022-07-29T00:39:25;19.30;99.90
6948;DHT22;3513;47.664;9.162;2022-07-29T00:41:51;19.30;99.90
6948;DHT22;3513;47.664;9.162;2022-07-29T00:44:17;19.30;99.90
6948;DHT22;3513;47.664;9.162;2022-07-29T00:46:42;19.30;99.90
6948;DHT22;3513;47.664;9.162;2022-07-29T00:49:08;19.30;99.90
6948;DHT22;3513;47.664;9.162;2022-07-29T00:51:37;19.30;99.90
6948;DHT22;3513;47.664;9.162;2022-07-29T00:54:04;19.20;99.90
6948;DHT22;3513;47.664;9.162;2022-07-29T00:56:31;19.20;99.90
6948;DHT22;3513;47.664;9.162;2022-07-29T00:58:57;19.10;99.90
6948;DHT22;3513;47.664;9.162;2022-07-29T01:01:23;19.10;99.90
6948;DHT22;3513;47.664;9.162;2022-07-29T01:03:49;19.00;99.90
6948;DHT22;3513;47.664;9.162;2022-07-29T01:06:16;18.90;99.90
6948;DHT22;3513;47.664;9.162;2022-07-29T01:08:42;18.80;99.90
6948;DHT22;3513;47.664;9.162;2022-07-29T01:11:09;18.80;99.90
6948;DHT22;3513;47.664;9.162;2022-07-29T01:13:35;18.70;99.90
6948;DHT22;3513;47.664;9.162;2022-07-29T01:16:12;18.70;99.90
6948;DHT22;3513;47.664;9.162;2022-07-29T01:18:42;18.70;99.90
6948;DHT22;3513;47.664;9.162;2022-07-29T01:29:57;18.60;99.90
6948;DHT22;3513;47.664;9.162;2022-07-29T01:32:29;18.60;99.90
6948;DHT22;3513;47.664;9.162;2022-07-29T01:35:18;18.60;99.90
6948;DHT22;3513;47.664;9.162;2022-07-29T01:38:04;18.50;99.90
6948;DHT22;3513;47.664;9.162;2022-07-29T01:40:56;18.50;99.90
6948;DHT22;3513;47.664;9.162;2022-07-29T01:43:34;18.50;99.90
6948;DHT22;3513;47.664;9.162;2022-07-29T01:46:10;18.40;99.90
6948;DHT22;3513;47.664;9.162;2022-07-29T01:48:44;18.40;99.90
6948;DHT22;3513;47.664;9.162;2022-07-29T01:51:20;18.40;99.90
6948;DHT22;3513;47.664;9.162;2022-07-29T01:54:04;18.30;99.90
6948;DHT22;3513;47.664;9.162;2022-07-29T01:56:32;18.30;99.90
6948;DHT22;3513;47.664;9.162;2022-07-29T01:59:01;18.30;99.90
6948;DHT22;3513;47.664;9.162;2022-07-29T02:01:27;18.30;99.90
6948;DHT22;3513;47.664;9.162;2022-07-29T02:03:56;18.30;99.90
6948;DHT22;3513;47.664;9.162;2022-07-29T02:06:23;18.20;99.90
6948;DHT22;3513;47.664;9.162;2022-07-29T02:08:51;18.10;99.90
6948;DHT22;3513;47.664;9.162;2022-07-29T02:11:18;18.10;99.90
6948;DHT22;3513;47.664;9.162;2022-07-29T02:13:44;18.10;99.90
6948;DHT22;3513;47.664;9.162;2022-07-29T02:16:11;18.10;99.90
6948;DHT22;3513;47.664;9.162;2022-07-29T02:18:39;18.10;99.90
6948;DHT22;3513;47.664;9.162;2022-07-29T02:21:07;18.00;99.90
6948;DHT22;3513;47.664;9.162;2022-07-29T02:23:35;17.90;99.90
6948;DHT22;3513;47.664;9.162;2022-07-29T02:26:01;17.80;99.90
6948;DHT22;3513;47.664;9.162;2022-07-29T02:28:29;17.90;99.90
6948;DHT22;3513;47.664;9.162;2022-07-29T02:30:58;17.80;99.90
6948;DHT22;3513;47.664;9.162;2022-07-29T02:33:25;17.80;99.90
6948;DHT22;3513;47.664;9.162;2022-07-29T02:35:52;17.60;99.90
6948;DHT22;3513;47.664;9.162;2022-07-29T02:38:19;17.60;99.90
6948;DHT22;3513;47.664;9.162;2022-07-29T02:41:09;17.50;99.90
6948;DHT22;3513;47.664;9.162;2022-07-29T02:43:37;17.60;99.90
6948;DHT22;3513;47.664;9.162;2022-07-29T02:46:06;17.60;99.90
6948;DHT22;3513;47.664;9.162;2022-07-29T02:48:38;17.50;99.90
6948;DHT22;3513;47.664;9.162;2022-07-29T02:51:32;17.50;99.90
6948;DHT22;3513;47.664;9.162;2022-07-29T02:54:02;17.40;99.90
6948;DHT22;3513;47.664;9.162;2022-07-29T02:56:33;17.40;99.90
6948;DHT22;3513;47.664;9.162;2022-07-29T02:59:03;17.40;99.90
6948;DHT22;3513;47.664;9.162;2022-07-29T03:01:32;17.40;99.90
6948;DHT22;3513;47.664;9.162;2022-07-29T03:04:00;17.40;99.90
6948;DHT22;3513;47.664;9.162;2022-07-29T03:06:27;17.40;99.90
6948;DHT22;3513;47.664;9.162;2022-07-29T03:08:54;17.40;99.90
6948;DHT22;3513;47.664;9.162;2022-07-29T03:11:21;17.40;99.90
6948;DHT22;3513;47.664;9.162;2022-07-29T03:13:47;17.40;99.90
6948;DHT22;3513;47.664;9.162;2022-07-29T03:16:14;17.40;99.90
6948;DHT22;3513;47.664;9.162;2022-07-29T03:18:41;17.30;99.90
6948;DHT22;3513;47.664;9.162;2022-07-29T03:21:08;17.40;99.90
6948;DHT22;3513;47.664;9.162;2022-07-29T03:23:33;17.30;99.90
6948;DHT22;3513;47.664;9.162;2022-07-29T03:25:59;17.30;99.90
6948;DHT22;3513;47.664;9.162;2022-07-29T03:28:25;17.30;99.90
6948;DHT22;3513;47.664;9.162;2022-07-29T03:30:53;17.30;99.90
6948;DHT22;3513;47.664;9.162;2022-07-29T03:33:18;17.30;99.90
6948;DHT22;3513;47.664;9.162;2022-07-29T03:35:44;17.20;99.90
6948;DHT22;3513;47.664;9.162;2022-07-29T03:38:10;17.30;99.90
6948;DHT22;3513;47.664;9.162;2022-07-29T03:40:49;17.30;99.90
6948;DHT22;3513;47.664;9.162;2022-07-29T03:43:17;17.30;99.90
6948;DHT22;3513;47.664;9.162;2022-07-29T03:45:47;17.40;99.90
6948;DHT22;3513;47.664;9.162;2022-07-29T03:48:17;17.40;99.90
6948;DHT22;3513;47.664;9.162;2022-07-29T03:50:45;17.40;99.90
6948;DHT22;3513;47.664;9.162;2022-07-29T03:53:11;17.30;99.90
6948;DHT22;3513;47.664;9.162;2022-07-29T03:55:44;17.40;99.90
6948;DHT22;3513;47.664;9.162;2022-07-29T03:58:12;17.40;99.90
6948;DHT22;3513;47.664;9.162;2022-07-29T04:00:38;17.50;99.90
6948;DHT22;3513;47.664;9.162;2022-07-29T04:03:05;17.50;99.90
6948;DHT22;3513;47.664;9.162;2022-07-29T04:05:30;17.60;99.90
6948;DHT22;3513;47.664;9.162;2022-07-29T04:07:56;17.60;99.90
6948;DHT22;3513;47.664;9.162;2022-07-29T04:10:22;17.60;99.90
6948;DHT22;3513;47.664;9.162;2022-07-29T04:12:50;17.50;99.90
6948;DHT22;3513;47.664;9.162;2022-07-29T04:15:16;17.50;99.90
6948;DHT22;3513;47.664;9.162;2022-07-29T04:17:42;17.50;99.90
6948;DHT22;3513;47.664;9.162;2022-07-29T04:20:08;17.50;99.90
6948;DHT22;3513;47.664;9.162;2022-07-29T04:22:34;17.50;99.90
6948;DHT22;3513;47.664;9.162;2022-07-29T04:25:00;17.60;99.90
6948;DHT22;3513;47.664;9.162;2022-07-29T04:27:26;17.60;99.90
6948;DHT22;3513;47.664;9.162;2022-07-29T04:29:51;17.60;99.90
6948;DHT22;3513;47.664;9.162;2022-07-29T04:32:17;17.60;99.90
6948;DHT22;3513;47.664;9.162;2022-07-29T04:34:42;17.50;99.90
6948;DHT22;3513;47.664;9.162;2022-07-29T04:37:08;17.60;99.90
6948;DHT22;3513;47.664;9.162;2022-07-29T04:39:34;17.60;99.90
6948;DHT22;3513;47.664;9.162;2022-07-29T04:41:59;17.60;99.90
6948;DHT22;3513;47.664;9.162;2022-07-29T04:44:25;17.70;99.90
6948;DHT22;3513;47.664;9.162;2022-07-29T04:46:51;17.80;99.90
6948;DHT22;3513;47.664;9.162;2022-07-29T04:49:17;17.70;99.90
6948;DHT22;3513;47.664;9.162;2022-07-29T04:51:43;17.80;99.90
6948;DHT22;3513;47.664;9.162;2022-07-29T04:54:08;17.80;99.90
6948;DHT22;3513;47.664;9.162;2022-07-29T04:56:34;17.90;99.90
6948;DHT22;3513;47.664;9.162;2022-07-29T04:58:59;18.00;99.90
6948;DHT22;3513;47.664;9.162;2022-07-29T05:01:25;18.00;99.90
6948;DHT22;3513;47.664;9.162;2022-07-29T05:03:51;18.10;99.90
6948;DHT22;3513;47.664;9.162;2022-07-29T05:06:17;18.10;99.90
6948;DHT22;3513;47.664;9.162;2022-07-29T05:08:42;18.20;99.90
6948;DHT22;3513;47.664;9.162;2022-07-29T05:11:08;18.20;99.90
6948;DHT22;3513;47.664;9.162;2022-07-29T05:13:34;18.30;99.90
6948;DHT22;3513;47.664;9.162;2022-07-29T05:16:00;18.30;99.90
6948;DHT22;3513;47.664;9.162;2022-07-29T05:18:26;18.40;99.90
6948;DHT22;3513;47.664;9.162;2022-07-29T05:20:52;18.30;99.90
6948;DHT22;3513;47.664;9.162;2022-07-29T05:23:18;18.30;99.90
6948;DHT22;3513;47.664;9.162;2022-07-29T05:25:43;18.40;99.90
6948;DHT22;3513;47.664;9.162;2022-07-29T05:28:09;18.40;99.90
6948;DHT22;3513;47.664;9.162;2022-07-29T05:30:35;18.40;99.90
6948;DHT22;3513;47.664;9.162;2022-07-29T05:33:01;18.50;99.90
6948;DHT22;3513;47.664;9.162;2022-07-29T05:35:26;18.50;99.90
6948;DHT22;3513;47.664;9.162;2022-07-29T05:37:52;18.60;99.90
6948;DHT22;3513;47.664;9.162;2022-07-29T05:40:18;18.60;99.90
6948;DHT22;3513;47.664;9.162;2022-07-29T05:42:43;18.70;99.90
6948;DHT22;3513;47.664;9.162;2022-07-29T05:45:09;18.80;99.90
6948;DHT22;3513;47.664;9.162;2022-07-29T05:47:35;18.80;99.90
6948;DHT22;3513;47.664;9.162;2022-07-29T05:50:01;18.90;99.90
6948;DHT22;3513;47.664;9.162;2022-07-29T05:52:26;18.90;99.90
6948;DHT22;3513;47.664;9.162;2022-07-29T05:54:52;18.90;99.90
6948;DHT22;3513;47.664;9.162;2022-07-29T05:57:20;19.00;99.90
6948;DHT22;3513;47.664;9.162;2022-07-29T05:59:46;19.00;99.90
6948;DHT22;3513;47.664;9.162;2022-07-29T06:02:12;19.00;99.90
6948;DHT22;3513;47.664;9.162;2022-07-29T06:04:38;19.10;99.90
6948;DHT22;3513;47.664;9.162;2022-07-29T06:07:04;19.10;99.90
6948;DHT22;3513;47.664;9.162;2022-07-29T06:09:29;19.20;99.90
6948;DHT22;3513;47.664;9.162;2022-07-29T06:11:55;19.30;99.90
6948;DHT22;3513;47.664;9.162;2022-07-29T06:14:22;19.40;99.90
6948;DHT22;3513;47.664;9.162;2022-07-29T06:16:48;19.50;99.90
6948;DHT22;3513;47.664;9.162;2022-07-29T06:19:13;19.50;99.90
6948;DHT22;3513;47.664;9.162;2022-07-29T06:21:43;19.50;99.90
6948;DHT22;3513;47.664;9.162;2022-07-29T06:24:10;19.50;99.90
6948;DHT22;3513;47.664;9.162;2022-07-29T06:26:35;19.60;99.90
6948;DHT22;3513;47.664;9.162;2022-07-29T06:29:01;19.60;99.90
6948;DHT22;3513;47.664;9.162;2022-07-29T06:31:27;19.70;99.90
6948;DHT22;3513;47.664;9.162;2022-07-29T06:33:52;19.70;99.90
6948;DHT22;3513;47.664;9.162;2022-07-29T06:36:18;19.80;99.90
6948;DHT22;3513;47.664;9.162;2022-07-29T06:38:44;19.90;99.90
6948;DHT22;3513;47.664;9.162;2022-07-29T06:41:09;20.00;99.90
6948;DHT22;3513;47.664;9.162;2022-07-29T06:43:42;20.10;99.90
6948;DHT22;3513;47.664;9.162;2022-07-29T06:46:13;20.20;99.90
6948;DHT22;3513;47.664;9.162;2022-07-29T06:48:41;20.20;99.90
6948;DHT22;3513;47.664;9.162;2022-07-29T06:51:08;20.20;99.90
6948;DHT22;3513;47.664;9.162;2022-07-29T06:53:34;20.20;99.90
6948;DHT22;3513;47.664;9.162;2022-07-29T06:56:00;20.30;99.90
6948;DHT22;3513;47.664;9.162;2022-07-29T06:58:28;20.30;99.90
6948;DHT22;3513;47.664;9.162;2022-07-29T07:00:55;20.30;99.90
6948;DHT22;3513;47.664;9.162;2022-07-29T07:03:21;20.40;99.90
6948;DHT22;3513;47.664;9.162;2022-07-29T07:05:47;20.50;99.90
6948;DHT22;3513;47.664;9.162;2022-07-29T07:08:13;20.60;99.90
6948;DHT22;3513;47.664;9.162;2022-07-29T07:10:39;20.70;99.90
6948;DHT22;3513;47.664;9.162;2022-07-29T07:13:05;20.80;99.90
6948;DHT22;3513;47.664;9.162;2022-07-29T07:15:31;20.90;99.90
6948;DHT22;3513;47.664;9.162;2022-07-29T07:17:57;21.00;99.90
6948;DHT22;3513;47.664;9.162;2022-07-29T07:20:23;21.00;99.90
6948;DHT22;3513;47.664;9.162;2022-07-29T07:22:49;21.10;99.90
6948;DHT22;3513;47.664;9.162;2022-07-29T07:25:15;21.10;99.90
6948;DHT22;3513;47.664;9.162;2022-07-29T07:27:43;21.10;99.90
6948;DHT22;3513;47.664;9.162;2022-07-29T07:30:09;21.00;99.90
6948;DHT22;3513;47.664;9.162;2022-07-29T07:32:35;21.00;99.90
6948;DHT22;3513;47.664;9.162;2022-07-29T07:35:02;21.10;99.90
6948;DHT22;3513;47.664;9.162;2022-07-29T07:37:28;21.10;99.90
6948;DHT22;3513;47.664;9.162;2022-07-29T07:39:54;21.10;99.90
6948;DHT22;3513;47.664;9.162;2022-07-29T07:42:20;21.20;99.90
6948;DHT22;3513;47.664;9.162;2022-07-29T07:44:45;21.30;99.90
6948;DHT22;3513;47.664;9.162;2022-07-29T07:47:15;21.40;99.90
6948;DHT22;3513;47.664;9.162;2022-07-29T07:49:46;21.60;99.90
6948;DHT22;3513;47.664;9.162;2022-07-29T07:52:16;21.80;99.90
6948;DHT22;3513;47.664;9.162;2022-07-29T07:54:42;22.00;99.90
6948;DHT22;3513;47.664;9.162;2022-07-29T07:57:08;22.30;99.90
6948;DHT22;3513;47.664;9.162;2022-07-29T07:59:34;22.50;99.90
6948;DHT22;3513;47.664;9.162;2022-07-29T08:02:00;22.80;99.90
6948;DHT22;3513;47.664;9.162;2022-07-29T08:04:26;23.00;99.90
6948;DHT22;3513;47.664;9.162;2022-07-29T08:06:52;23.10;99.90
6948;DHT22;3513;47.664;9.162;2022-07-29T08:09:22;23.30;99.90
6948;DHT22;3513;47.664;9.162;2022-07-29T08:11:48;23.40;99.90
6948;DHT22;3513;47.664;9.162;2022-07-29T08:14:14;23.60;99.30
6948;DHT22;3513;47.664;9.162;2022-07-29T08:16:40;23.70;98.70
6948;DHT22;3513;47.664;9.162;2022-07-29T08:19:06;23.70;97.50
6948;DHT22;3513;47.664;9.162;2022-07-29T08:21:32;23.70;97.70
6948;DHT22;3513;47.664;9.162;2022-07-29T08:23:58;23.70;97.60
6948;DHT22;3513;47.664;9.162;2022-07-29T08:26:56;23.70;97.70
6948;DHT22;3513;47.664;9.162;2022-07-29T08:29:21;23.80;96.90
6948;DHT22;3513;47.664;9.162;2022-07-29T08:31:47;23.80;96.80
6948;DHT22;3513;47.664;9.162;2022-07-29T08:34:13;23.80;96.70
6948;DHT22;3513;47.664;9.162;2022-07-29T08:36:38;23.80;96.90
6948;DHT22;3513;47.664;9.162;2022-07-29T08:39:04;23.80;97.30
6948;DHT22;3513;47.664;9.162;2022-07-29T08:41:31;23.80;96.80
6948;DHT22;3513;47.664;9.162;2022-07-29T08:43:56;23.80;97.20
6948;DHT22;3513;47.664;9.162;2022-07-29T08:46:22;23.70;97.40
6948;DHT22;3513;47.664;9.162;2022-07-29T08:48:49;23.70;97.60
6948;DHT22;3513;47.664;9.162;2022-07-29T08:51:18;23.60;97.50
6948;DHT22;3513;47.664;9.162;2022-07-29T08:53:46;23.60;97.80
6948;DHT22;3513;47.664;9.162;2022-07-29T08:56:17;23.50;98.30
6948;DHT22;3513;47.664;9.162;2022-07-29T08:58:44;23.40;98.70
6948;DHT22;3513;47.664;9.162;2022-07-29T09:01:11;23.40;99.00
6948;DHT22;3513;47.664;9.162;2022-07-29T09:03:40;23.40;98.30
6948;DHT22;3513;47.664;9.162;2022-07-29T09:06:06;23.30;96.00
6948;DHT22;3513;47.664;9.162;2022-07-29T09:08:32;23.20;95.00
6948;DHT22;3513;47.664;9.162;2022-07-29T09:11:00;23.00;95.80
6948;DHT22;3513;47.664;9.162;2022-07-29T09:13:26;22.90;95.90
6948;DHT22;3513;47.664;9.162;2022-07-29T09:15:52;22.90;96.10
6948;DHT22;3513;47.664;9.162;2022-07-29T09:18:37;22.80;96.00
6948;DHT22;3513;47.664;9.162;2022-07-29T09:21:05;22.80;95.90
6948;DHT22;3513;47.664;9.162;2022-07-29T09:26:40;22.70;95.60
6948;DHT22;3513;47.664;9.162;2022-07-29T09:29:11;22.50;95.80
6948;DHT22;3513;47.664;9.162;2022-07-29T09:31:41;22.40;96.40
6948;DHT22;3513;47.664;9.162;2022-07-29T09:34:08;22.30;97.30
6948;DHT22;3513;47.664;9.162;2022-07-29T09:36:44;22.20;97.60
6948;DHT22;3513;47.664;9.162;2022-07-29T09:39:11;22.10;98.10
6948;DHT22;3513;47.664;9.162;2022-07-29T09:41:50;22.10;98.90
6948;DHT22;3513;47.664;9.162;2022-07-29T09:44:18;22.10;99.00
6948;DHT22;3513;47.664;9.162;2022-07-29T09:47:01;22.00;99.90
6948;DHT22;3513;47.664;9.162;2022-07-29T09:49:56;22.00;99.90
6948;DHT22;3513;47.664;9.162;2022-07-29T09:52:24;22.00;99.90
6948;DHT22;3513;47.664;9.162;2022-07-29T09:54:50;22.10;99.90
6948;DHT22;3513;47.664;9.162;2022-07-29T09:57:27;22.10;99.90
6948;DHT22;3513;47.664;9.162;2022-07-29T10:02:32;22.20;99.90
6948;DHT22;3513;47.664;9.162;2022-07-29T10:04:58;22.30;99.60
6948;DHT22;3513;47.664;9.162;2022-07-29T10:07:56;22.40;99.90
6948;DHT22;3513;47.664;9.162;2022-07-29T10:10:24;22.40;99.90
6948;DHT22;3513;47.664;9.162;2022-07-29T10:12:55;22.40;99.10
6948;DHT22;3513;47.664;9.162;2022-07-29T10:15:25;22.40;98.00
6948;DHT22;3513;47.664;9.162;2022-07-29T10:17:52;22.50;96.60
6948;DHT22;3513;47.664;9.162;2022-07-29T10:20:19;22.70;96.00
6948;DHT22;3513;47.664;9.162;2022-07-29T10:22:47;22.80;95.70
6948;DHT22;3513;47.664;9.162;2022-07-29T10:25:16;23.10;94.90
6948;DHT22;3513;47.664;9.162;2022-07-29T10:27:44;23.30;93.70
6948;DHT22;3513;47.664;9.162;2022-07-29T10:30:15;23.50;92.20
6948;DHT22;3513;47.664;9.162;2022-07-29T10:44:01;24.00;91.60
6948;DHT22;3513;47.664;9.162;2022-07-29T10:46:28;24.00;91.60
6948;DHT22;3513;47.664;9.162;2022-07-29T10:49:13;24.10;92.10
6948;DHT22;3513;47.664;9.162;2022-07-29T10:59:46;24.50;90.90
6948;DHT22;3513;47.664;9.162;2022-07-29T11:05:06;24.80;92.00
6948;DHT22;3513;47.664;9.162;2022-07-29T11:07:33;25.00;91.90
6948;DHT22;3513;47.664;9.162;2022-07-29T11:15:16;25.80;87.50
6948;DHT22;3513;47.664;9.162;2022-07-29T11:20:39;26.00;86.20
6948;DHT22;3513;47.664;9.162;2022-07-29T11:23:27;26.20;89.00
6948;DHT22;3513;47.664;9.162;2022-07-29T11:31:41;26.10;81.80
6948;DHT22;3513;47.664;9.162;2022-07-29T11:34:26;26.50;83.10
6948;DHT22;3513;47.664;9.162;2022-07-29T11:39:37;26.30;83.20
6948;DHT22;3513;47.664;9.162;2022-07-29T11:47:23;26.50;81.10
6948;DHT22;3513;47.664;9.162;2022-07-29T11:49:50;26.50;83.00
6948;DHT22;3513;47.664;9.162;2022-07-29T11:52:17;26.60;82.00
6948;DHT22;3513;47.664;9.162;2022-07-29T11:54:43;26.80;81.90
6948;DHT22;3513;47.664;9.162;2022-07-29T11:57:09;27.00;79.90
6948;DHT22;3513;47.664;9.162;2022-07-29T11:59:42;27.00;81.10
6948;DHT22;3513;47.664;9.162;2022-07-29T12:02:09;27.20;82.60
6948;DHT22;3513;47.664;9.162;2022-07-29T12:04:55;27.40;81.80
6948;DHT22;3513;47.664;9.162;2022-07-29T12:07:31;27.70;80.10
6948;DHT22;3513;47.664;9.162;2022-07-29T12:09:57;27.80;78.50
6948;DHT22;3513;47.664;9.162;2022-07-29T12:12:23;28.00;78.10
6948;DHT22;3513;47.664;9.162;2022-07-29T12:14:49;28.10;76.60
6948;DHT22;3513;47.664;9.162;2022-07-29T12:17:32;28.30;77.20
6948;DHT22;3513;47.664;9.162;2022-07-29T12:20:03;28.50;76.20
6948;DHT22;3513;47.664;9.162;2022-07-29T12:22:30;28.60;73.40
6948;DHT22;3513;47.664;9.162;2022-07-29T12:25:02;28.40;73.00
6948;DHT22;3513;47.664;9.162;2022-07-29T12:27:28;28.20;75.50
6948;DHT22;3513;47.664;9.162;2022-07-29T12:30:05;28.00;77.70
6948;DHT22;3513;47.664;9.162;2022-07-29T12:32:39;27.90;78.60
6948;DHT22;3513;47.664;9.162;2022-07-29T12:35:11;27.80;79.40
6948;DHT22;3513;47.664;9.162;2022-07-29T12:37:40;27.80;79.00
6948;DHT22;3513;47.664;9.162;2022-07-29T12:40:07;27.70;77.50
6948;DHT22;3513;47.664;9.162;2022-07-29T12:42:33;27.60;79.10
6948;DHT22;3513;47.664;9.162;2022-07-29T12:45:00;27.70;80.90
6948;DHT22;3513;47.664;9.162;2022-07-29T12:47:26;27.70;82.90
6948;DHT22;3513;47.664;9.162;2022-07-29T12:50:10;27.70;83.40
6948;DHT22;3513;47.664;9.162;2022-07-29T12:52:36;27.80;83.70
6948;DHT22;3513;47.664;9.162;2022-07-29T12:55:02;27.90;84.10
6948;DHT22;3513;47.664;9.162;2022-07-29T12:57:28;27.90;84.00
6948;DHT22;3513;47.664;9.162;2022-07-29T13:00:09;28.00;83.20
6948;DHT22;3513;47.664;9.162;2022-07-29T13:02:37;28.00;83.40
6948;DHT22;3513;47.664;9.162;2022-07-29T13:05:04;28.00;83.40
6948;DHT22;3513;47.664;9.162;2022-07-29T13:07:32;28.00;83.80
6948;DHT22;3513;47.664;9.162;2022-07-29T13:10:16;27.90;84.00
6948;DHT22;3513;47.664;9.162;2022-07-29T13:13:08;27.90;83.90
6948;DHT22;3513;47.664;9.162;2022-07-29T13:15:36;27.90;84.00
6948;DHT22;3513;47.664;9.162;2022-07-29T13:18:02;27.80;84.90
6948;DHT22;3513;47.664;9.162;2022-07-29T13:20:29;27.80;85.10
6948;DHT22;3513;47.664;9.162;2022-07-29T13:22:56;27.60;84.90
6948;DHT22;3513;47.664;9.162;2022-07-29T13:25:27;27.50;86.00
6948;DHT22;3513;47.664;9.162;2022-07-29T13:27:54;27.40;87.20
6948;DHT22;3513;47.664;9.162;2022-07-29T13:30:20;27.20;88.30
6948;DHT22;3513;47.664;9.162;2022-07-29T13:32:47;27.20;88.60
6948;DHT22;3513;47.664;9.162;2022-07-29T13:35:13;27.10;87.80
6948;DHT22;3513;47.664;9.162;2022-07-29T13:37:39;27.10;88.00
6948;DHT22;3513;47.664;9.162;2022-07-29T13:40:07;27.20;88.00
6948;DHT22;3513;47.664;9.162;2022-07-29T13:42:33;27.20;88.00
6948;DHT22;3513;47.664;9.162;2022-07-29T13:44:59;27.30;88.40
6948;DHT22;3513;47.664;9.162;2022-07-29T13:47:25;27.30;86.50
6948;DHT22;3513;47.664;9.162;2022-07-29T13:49:51;27.30;86.40
6948;DHT22;3513;47.664;9.162;2022-07-29T13:52:19;27.40;84.80
6948;DHT22;3513;47.664;9.162;2022-07-29T13:54:44;27.40;83.30
6948;DHT22;3513;47.664;9.162;2022-07-29T13:57:11;27.30;77.60
6948;DHT22;3513;47.664;9.162;2022-07-29T13:59:37;27.10;78.80
6948;DHT22;3513;47.664;9.162;2022-07-29T14:02:03;26.80;80.00
6948;DHT22;3513;47.664;9.162;2022-07-29T14:04:29;26.70;78.50
6948;DHT22;3513;47.664;9.162;2022-07-29T14:06:54;26.50;80.20
6948;DHT22;3513;47.664;9.162;2022-07-29T14:09:20;26.40;81.60
6948;DHT22;3513;47.664;9.162;2022-07-29T14:11:46;26.30;82.20
6948;DHT22;3513;47.664;9.162;2022-07-29T14:14:14;26.20;83.90
6948;DHT22;3513;47.664;9.162;2022-07-29T14:16:40;26.00;83.80
6948;DHT22;3513;47.664;9.162;2022-07-29T14:19:06;25.90;84.50
6948;DHT22;3513;47.664;9.162;2022-07-29T14:21:32;25.70;85.00
6948;DHT22;3513;47.664;9.162;2022-07-29T14:23:58;25.60;86.00
6948;DHT22;3513;47.664;9.162;2022-07-29T14:26:23;25.40;88.10
6948;DHT22;3513;47.664;9.162;2022-07-29T14:28:49;25.30;89.30
6948;DHT22;3513;47.664;9.162;2022-07-29T14:31:15;24.90;91.00
6948;DHT22;3513;47.664;9.162;2022-07-29T14:33:41;24.60;91.70
6948;DHT22;3513;47.664;9.162;2022-07-29T14:36:07;24.20;92.70
6948;DHT22;3513;47.664;9.162;2022-07-29T14:38:33;23.90;93.00
6948;DHT22;3513;47.664;9.162;2022-07-29T14:40:58;23.50;93.70
6948;DHT22;3513;47.664;9.162;2022-07-29T14:43:24;23.10;95.10
6948;DHT22;3513;47.664;9.162;2022-07-29T14:45:49;22.80;96.20
6948;DHT22;3513;47.664;9.162;2022-07-29T14:48:15;22.60;96.80
6948;DHT22;3513;47.664;9.162;2022-07-29T14:50:41;22.30;98.10
6948;DHT22;3513;47.664;9.162;2022-07-29T14:53:06;22.10;99.00
6948;DHT22;3513;47.664;9.162;2022-07-29T14:55:32;21.90;99.90
6948;DHT22;3513;47.664;9.162;2022-07-29T14:57:58;21.70;99.90
6948;DHT22;3513;47.664;9.162;2022-07-29T15:00:25;21.50;99.90
6948;DHT22;3513;47.664;9.162;2022-07-29T15:02:51;21.30;99.90
6948;DHT22;3513;47.664;9.162;2022-07-29T15:05:16;21.10;99.90
6948;DHT22;3513;47.664;9.162;2022-07-29T15:07:42;21.00;99.90
6948;DHT22;3513;47.664;9.162;2022-07-29T15:10:08;21.00;99.90
6948;DHT22;3513;47.664;9.162;2022-07-29T15:12:34;20.80;99.90
6948;DHT22;3513;47.664;9.162;2022-07-29T15:14:59;20.70;99.90
6948;DHT22;3513;47.664;9.162;2022-07-29T15:17:25;20.50;99.90
6948;DHT22;3513;47.664;9.162;2022-07-29T15:19:51;20.40;99.90
6948;DHT22;3513;47.664;9.162;2022-07-29T15:22:17;20.40;99.90
6948;DHT22;3513;47.664;9.162;2022-07-29T15:24:42;19.90;99.90
6948;DHT22;3513;47.664;9.162;2022-07-29T15:27:09;20.20;99.90
6948;DHT22;3513;47.664;9.162;2022-07-29T15:29:40;20.20;99.90
6948;DHT22;3513;47.664;9.162;2022-07-29T15:32:06;20.30;99.90
6948;DHT22;3513;47.664;9.162;2022-07-29T15:34:31;20.20;99.90
6948;DHT22;3513;47.664;9.162;2022-07-29T15:36:57;20.20;99.90
6948;DHT22;3513;47.664;9.162;2022-07-29T15:39:23;20.20;99.90
6948;DHT22;3513;47.664;9.162;2022-07-29T15:41:49;20.30;99.90
6948;DHT22;3513;47.664;9.162;2022-07-29T15:44:15;20.20;99.90
6948;DHT22;3513;47.664;9.162;2022-07-29T15:46:40;20.20;99.90
6948;DHT22;3513;47.664;9.162;2022-07-29T15:49:24;20.10;99.90
6948;DHT22;3513;47.664;9.162;2022-07-29T15:51:57;20.10;99.90
6948;DHT22;3513;47.664;9.162;2022-07-29T15:54:23;20.10;99.90
6948;DHT22;3513;47.664;9.162;2022-07-29T15:56:49;20.00;99.90
6948;DHT22;3513;47.664;9.162;2022-07-29T15:59:14;19.90;99.90
6948;DHT22;3513;47.664;9.162;2022-07-29T16:01:40;19.90;99.90
6948;DHT22;3513;47.664;9.162;2022-07-29T16:04:06;19.80;99.90
6948;DHT22;3513;47.664;9.162;2022-07-29T16:06:31;19.80;99.90
6948;DHT22;3513;47.664;9.162;2022-07-29T16:08:57;19.80;99.90
6948;DHT22;3513;47.664;9.162;2022-07-29T16:11:25;19.90;99.90
6948;DHT22;3513;47.664;9.162;2022-07-29T16:13:50;19.80;99.90
6948;DHT22;3513;47.664;9.162;2022-07-29T16:16:16;19.80;99.90
6948;DHT22;3513;47.664;9.162;2022-07-29T16:18:43;19.80;99.90
6948;DHT22;3513;47.664;9.162;2022-07-29T16:21:09;19.80;99.90
6948;DHT22;3513;47.664;9.162;2022-07-29T16:23:35;19.80;99.90
6948;DHT22;3513;47.664;9.162;2022-07-29T16:26:01;19.80;99.90
6948;DHT22;3513;47.664;9.162;2022-07-29T16:28:27;19.80;99.90
6948;DHT22;3513;47.664;9.162;2022-07-29T16:30:53;19.60;99.90
6948;DHT22;3513;47.664;9.162;2022-07-29T16:33:19;19.60;99.90
6948;DHT22;3513;47.664;9.162;2022-07-29T16:35:44;19.60;99.90
6948;DHT22;3513;47.664;9.162;2022-07-29T16:38:10;19.60;99.90
6948;DHT22;3513;47.664;9.162;2022-07-29T16:40:36;19.60;99.90
6948;DHT22;3513;47.664;9.162;2022-07-29T16:43:02;19.60;99.90
6948;DHT22;3513;47.664;9.162;2022-07-29T16:45:27;19.50;99.90
6948;DHT22;3513;47.664;9.162;2022-07-29T16:47:54;19.50;99.90
6948;DHT22;3513;47.664;9.162;2022-07-29T16:50:19;19.50;99.90
6948;DHT22;3513;47.664;9.162;2022-07-29T16:52:45;19.50;99.90
6948;DHT22;3513;47.664;9.162;2022-07-29T16:55:11;19.40;99.90
6948;DHT22;3513;47.664;9.162;2022-07-29T16:57:36;19.40;99.90
6948;DHT22;3513;47.664;9.162;2022-07-29T17:00:03;19.40;99.90
6948;DHT22;3513;47.664;9.162;2022-07-29T17:02:29;19.40;99.90
6948;DHT22;3513;47.664;9.162;2022-07-29T17:04:55;19.50;99.90